sensor_id;sensor_type;location;lat;lon;timestamp;P1;durP1;ratioP1;P2;durP2;ratioP2
18100;SDS011;9177;49.156;8.142;2023-03-04T00:02:17;6.83;;;4.40;;
18100;SDS011;9177;49.156;8.142;2023-03-04T00:04:44;5.50;;;5.00;;
18100;SDS011;9177;49.156;8.142;2023-03-04T00:07:11;4.60;;;4.20;;
18100;SDS011;9177;49.156;8.142;2023-03-04T00:09:43;6.27;;;4.63;;
18100;SDS011;9177;49.156;8.142;2023-03-04T00:12:10;5.80;;;4.65;;
18100;SDS011;9177;49.156;8.142;2023-03-04T00:14:37;4.80;;;4.30;;
18100;SDS011;9177;49.156;8.142;2023-03-04T00:17:04;5.93;;;4.57;;
18100;SDS011;9177;49.156;8.142;2023-03-04T00:19:31;4.10;;;3.70;;
18100;SDS011;9177;49.156;8.142;2023-03-04T00:21:59;5.77;;;4.43;;
18100;SDS011;9177;49.156;8.142;2023-03-04T00:24:26;7.90;;;4.77;;
18100;SDS011;9177;49.156;8.142;2023-03-04T00:26:54;4.93;;;4.43;;
18100;SDS011;9177;49.156;8.142;2023-03-04T00:29:21;4.60;;;4.20;;
18100;SDS011;9177;49.156;8.142;2023-03-04T00:31:48;5.00;;;4.13;;
18100;SDS011;9177;49.156;8.142;2023-03-04T00:34:14;4.93;;;4.37;;
18100;SDS011;9177;49.156;8.142;2023-03-04T00:36:41;4.33;;;3.93;;
18100;SDS011;9177;49.156;8.142;2023-03-04T00:39:09;5.23;;;4.73;;
18100;SDS011;9177;49.156;8.142;2023-03-04T00:41:36;5.00;;;4.17;;
18100;SDS011;9177;49.156;8.142;2023-03-04T00:44:04;4.90;;;4.40;;
18100;SDS011;9177;49.156;8.142;2023-03-04T00:46:31;4.83;;;4.43;;
18100;SDS011;9177;49.156;8.142;2023-03-04T00:48:58;5.20;;;4.70;;
18100;SDS011;9177;49.156;8.142;2023-03-04T00:51:27;4.47;;;4.07;;
18100;SDS011;9177;49.156;8.142;2023-03-04T00:53:55;5.30;;;4.60;;
18100;SDS011;9177;49.156;8.142;2023-03-04T00:56:21;4.80;;;4.40;;
18100;SDS011;9177;49.156;8.142;2023-03-04T00:58:48;4.43;;;4.03;;
18100;SDS011;9177;49.156;8.142;2023-03-04T01:01:16;4.93;;;4.43;;
18100;SDS011;9177;49.156;8.142;2023-03-04T01:03:43;4.27;;;3.87;;
18100;SDS011;9177;49.156;8.142;2023-03-04T01:06:10;5.30;;;4.37;;
18100;SDS011;9177;49.156;8.142;2023-03-04T01:08:37;5.00;;;4.50;;
18100;SDS011;9177;49.156;8.142;2023-03-04T01:11:05;4.93;;;4.40;;
18100;SDS011;9177;49.156;8.142;2023-03-04T01:13:32;4.60;;;4.20;;
18100;SDS011;9177;49.156;8.142;2023-03-04T01:15:59;4.67;;;3.90;;
18100;SDS011;9177;49.156;8.142;2023-03-04T01:18:28;4.37;;;3.97;;
18100;SDS011;9177;49.156;8.142;2023-03-04T01:20:55;5.73;;;4.60;;
18100;SDS011;9177;49.156;8.142;2023-03-04T01:23:23;5.20;;;4.30;;
18100;SDS011;9177;49.156;8.142;2023-03-04T01:25:49;4.80;;;4.40;;
18100;SDS011;9177;49.156;8.142;2023-03-04T01:28:16;5.00;;;4.50;;
18100;SDS011;9177;49.156;8.142;2023-03-04T01:30:43;4.67;;;4.27;;
18100;SDS011;9177;49.156;8.142;2023-03-04T01:33:10;5.23;;;4.70;;
18100;SDS011;9177;49.156;8.142;2023-03-04T01:35:38;6.93;;;4.30;;
18100;SDS011;9177;49.156;8.142;2023-03-04T01:38:05;4.30;;;3.90;;
18100;SDS011;9177;49.156;8.142;2023-03-04T01:40:32;4.43;;;4.03;;
18100;SDS011;9177;49.156;8.142;2023-03-04T01:42:59;4.50;;;4.10;;
18100;SDS011;9177;49.156;8.142;2023-03-04T01:45:26;4.70;;;4.30;;
18100;SDS011;9177;49.156;8.142;2023-03-04T01:47:54;4.57;;;4.10;;
18100;SDS011;9177;49.156;8.142;2023-03-04T01:50:22;5.03;;;4.60;;
18100;SDS011;9177;49.156;8.142;2023-03-04T01:52:54;5.07;;;4.60;;
18100;SDS011;9177;49.156;8.142;2023-03-04T01:55:22;5.13;;;4.37;;
18100;SDS011;9177;49.156;8.142;2023-03-04T01:57:50;4.90;;;4.40;;
18100;SDS011;9177;49.156;8.142;2023-03-04T02:00:20;5.13;;;4.63;;
18100;SDS011;9177;49.156;8.142;2023-03-04T02:02:56;4.30;;;4.00;;
18100;SDS011;9177;49.156;8.142;2023-03-04T02:05:25;5.20;;;4.70;;
18100;SDS011;9177;49.156;8.142;2023-03-04T02:07:52;5.07;;;4.60;;
18100;SDS011;9177;49.156;8.142;2023-03-04T02:10:22;5.33;;;4.83;;
18100;SDS011;9177;49.156;8.142;2023-03-04T02:12:50;5.07;;;4.57;;
18100;SDS011;9177;49.156;8.142;2023-03-04T02:15:17;4.90;;;4.40;;
18100;SDS011;9177;49.156;8.142;2023-03-04T02:17:44;4.87;;;4.33;;
18100;SDS011;9177;49.156;8.142;2023-03-04T02:20:17;5.20;;;4.70;;
18100;SDS011;9177;49.156;8.142;2023-03-04T02:22:56;5.67;;;5.17;;
18100;SDS011;9177;49.156;8.142;2023-03-04T02:25:32;4.63;;;4.23;;
18100;SDS011;9177;49.156;8.142;2023-03-04T02:28:04;4.63;;;4.23;;
18100;SDS011;9177;49.156;8.142;2023-03-04T02:30:31;5.50;;;5.00;;
18100;SDS011;9177;49.156;8.142;2023-03-04T02:32:59;5.37;;;4.87;;
18100;SDS011;9177;49.156;8.142;2023-03-04T02:35:26;5.37;;;4.87;;
18100;SDS011;9177;49.156;8.142;2023-03-04T02:37:53;4.80;;;4.40;;
18100;SDS011;9177;49.156;8.142;2023-03-04T02:40:21;5.23;;;4.73;;
18100;SDS011;9177;49.156;8.142;2023-03-04T02:42:51;4.70;;;4.30;;
18100;SDS011;9177;49.156;8.142;2023-03-04T02:45:33;5.80;;;5.30;;
18100;SDS011;9177;49.156;8.142;2023-03-04T02:48:03;5.10;;;4.67;;
18100;SDS011;9177;49.156;8.142;2023-03-04T02:50:32;5.30;;;4.80;;
18100;SDS011;9177;49.156;8.142;2023-03-04T02:53:01;5.83;;;4.70;;
18100;SDS011;9177;49.156;8.142;2023-03-04T02:55:28;5.10;;;4.67;;
18100;SDS011;9177;49.156;8.142;2023-03-04T02:57:56;4.70;;;4.30;;
18100;SDS011;9177;49.156;8.142;2023-03-04T03:00:23;5.20;;;4.70;;
18100;SDS011;9177;49.156;8.142;2023-03-04T03:02:51;5.53;;;5.00;;
18100;SDS011;9177;49.156;8.142;2023-03-04T03:05:18;5.30;;;4.80;;
18100;SDS011;9177;49.156;8.142;2023-03-04T03:07:45;5.03;;;4.53;;
18100;SDS011;9177;49.156;8.142;2023-03-04T03:10:12;5.00;;;4.60;;
18100;SDS011;9177;49.156;8.142;2023-03-04T03:12:39;5.20;;;4.67;;
18100;SDS011;9177;49.156;8.142;2023-03-04T03:15:06;5.03;;;4.60;;
18100;SDS011;9177;49.156;8.142;2023-03-04T03:17:34;5.00;;;4.60;;
18100;SDS011;9177;49.156;8.142;2023-03-04T03:20:02;5.00;;;4.60;;
18100;SDS011;9177;49.156;8.142;2023-03-04T03:22:29;5.40;;;4.87;;
18100;SDS011;9177;49.156;8.142;2023-03-04T03:24:56;5.77;;;5.27;;
18100;SDS011;9177;49.156;8.142;2023-03-04T03:27:23;5.00;;;4.50;;
18100;SDS011;9177;49.156;8.142;2023-03-04T03:29:50;5.20;;;4.70;;
18100;SDS011;9177;49.156;8.142;2023-03-04T03:32:17;5.00;;;4.60;;
18100;SDS011;9177;49.156;8.142;2023-03-04T03:34:44;5.67;;;4.80;;
18100;SDS011;9177;49.156;8.142;2023-03-04T03:37:12;5.30;;;4.80;;
18100;SDS011;9177;49.156;8.142;2023-03-04T03:39:42;4.70;;;4.30;;
18100;SDS011;9177;49.156;8.142;2023-03-04T03:42:09;5.67;;;5.17;;
18100;SDS011;9177;49.156;8.142;2023-03-04T03:44:36;5.33;;;4.83;;
18100;SDS011;9177;49.156;8.142;2023-03-04T03:47:02;5.40;;;4.90;;
18100;SDS011;9177;49.156;8.142;2023-03-04T03:49:32;5.20;;;4.73;;
18100;SDS011;9177;49.156;8.142;2023-03-04T03:51:58;5.43;;;4.93;;
18100;SDS011;9177;49.156;8.142;2023-03-04T03:54:27;5.60;;;5.10;;
18100;SDS011;9177;49.156;8.142;2023-03-04T03:56:54;5.23;;;4.73;;
18100;SDS011;9177;49.156;8.142;2023-03-04T03:59:20;6.10;;;5.57;;
18100;SDS011;9177;49.156;8.142;2023-03-04T04:01:48;5.90;;;4.87;;
18100;SDS011;9177;49.156;8.142;2023-03-04T04:04:14;5.57;;;5.00;;
18100;SDS011;9177;49.156;8.142;2023-03-04T04:06:41;5.73;;;5.13;;
18100;SDS011;9177;49.156;8.142;2023-03-04T04:09:08;5.40;;;4.90;;
18100;SDS011;9177;49.156;8.142;2023-03-04T04:11:36;5.13;;;4.73;;
18100;SDS011;9177;49.156;8.142;2023-03-04T04:14:03;5.73;;;5.10;;
18100;SDS011;9177;49.156;8.142;2023-03-04T04:16:30;5.23;;;4.80;;
18100;SDS011;9177;49.156;8.142;2023-03-04T04:18:57;5.17;;;4.73;;
18100;SDS011;9177;49.156;8.142;2023-03-04T04:21:24;5.00;;;4.60;;
18100;SDS011;9177;49.156;8.142;2023-03-04T04:23:50;5.03;;;4.53;;
18100;SDS011;9177;49.156;8.142;2023-03-04T04:26:17;5.60;;;5.10;;
18100;SDS011;9177;49.156;8.142;2023-03-04T04:28:46;5.03;;;4.63;;
18100;SDS011;9177;49.156;8.142;2023-03-04T04:31:16;5.93;;;5.23;;
18100;SDS011;9177;49.156;8.142;2023-03-04T04:33:43;5.93;;;5.40;;
18100;SDS011;9177;49.156;8.142;2023-03-04T04:36:11;6.37;;;5.77;;
18100;SDS011;9177;49.156;8.142;2023-03-04T04:38:40;6.23;;;5.60;;
18100;SDS011;9177;49.156;8.142;2023-03-04T04:41:10;6.30;;;5.70;;
18100;SDS011;9177;49.156;8.142;2023-03-04T04:43:43;5.63;;;5.13;;
18100;SDS011;9177;49.156;8.142;2023-03-04T04:46:11;5.67;;;5.17;;
18100;SDS011;9177;49.156;8.142;2023-03-04T04:48:38;5.60;;;5.10;;
18100;SDS011;9177;49.156;8.142;2023-03-04T04:51:05;5.90;;;5.40;;
18100;SDS011;9177;49.156;8.142;2023-03-04T04:53:32;5.63;;;5.13;;
18100;SDS011;9177;49.156;8.142;2023-03-04T04:55:59;6.20;;;5.60;;
18100;SDS011;9177;49.156;8.142;2023-03-04T04:58:32;6.17;;;5.63;;
18100;SDS011;9177;49.156;8.142;2023-03-04T05:01:01;6.63;;;6.03;;
18100;SDS011;9177;49.156;8.142;2023-03-04T05:03:28;5.77;;;5.27;;
18100;SDS011;9177;49.156;8.142;2023-03-04T05:05:55;6.10;;;5.60;;
18100;SDS011;9177;49.156;8.142;2023-03-04T05:08:22;6.17;;;5.57;;
18100;SDS011;9177;49.156;8.142;2023-03-04T05:10:49;6.40;;;5.80;;
18100;SDS011;9177;49.156;8.142;2023-03-04T05:13:16;6.43;;;5.83;;
18100;SDS011;9177;49.156;8.142;2023-03-04T05:15:43;6.23;;;5.73;;
18100;SDS011;9177;49.156;8.142;2023-03-04T05:18:12;5.97;;;5.47;;
18100;SDS011;9177;49.156;8.142;2023-03-04T05:20:39;6.73;;;6.03;;
18100;SDS011;9177;49.156;8.142;2023-03-04T05:23:05;6.47;;;5.83;;
18100;SDS011;9177;49.156;8.142;2023-03-04T05:25:32;6.67;;;6.10;;
18100;SDS011;9177;49.156;8.142;2023-03-04T05:27:59;6.30;;;5.80;;
18100;SDS011;9177;49.156;8.142;2023-03-04T05:30:26;6.90;;;6.30;;
18100;SDS011;9177;49.156;8.142;2023-03-04T05:32:53;6.57;;;5.97;;
18100;SDS011;9177;49.156;8.142;2023-03-04T05:35:21;6.93;;;6.33;;
18100;SDS011;9177;49.156;8.142;2023-03-04T05:37:48;6.50;;;5.90;;
18100;SDS011;9177;49.156;8.142;2023-03-04T05:40:15;6.97;;;6.30;;
18100;SDS011;9177;49.156;8.142;2023-03-04T05:42:42;6.77;;;6.07;;
18100;SDS011;9177;49.156;8.142;2023-03-04T05:45:09;6.67;;;6.07;;
18100;SDS011;9177;49.156;8.142;2023-03-04T05:47:36;6.90;;;6.30;;
18100;SDS011;9177;49.156;8.142;2023-03-04T05:50:04;7.37;;;6.67;;
18100;SDS011;9177;49.156;8.142;2023-03-04T05:52:32;6.80;;;6.20;;
18100;SDS011;9177;49.156;8.142;2023-03-04T05:54:59;7.00;;;6.37;;
18100;SDS011;9177;49.156;8.142;2023-03-04T05:57:26;6.53;;;5.93;;
18100;SDS011;9177;49.156;8.142;2023-03-04T05:59:53;6.67;;;6.03;;
18100;SDS011;9177;49.156;8.142;2023-03-04T06:02:23;6.73;;;6.13;;
18100;SDS011;9177;49.156;8.142;2023-03-04T06:04:50;6.93;;;6.33;;
18100;SDS011;9177;49.156;8.142;2023-03-04T06:07:16;7.87;;;7.07;;
18100;SDS011;9177;49.156;8.142;2023-03-04T06:09:45;7.40;;;6.70;;
18100;SDS011;9177;49.156;8.142;2023-03-04T06:12:12;6.40;;;5.80;;
18100;SDS011;9177;49.156;8.142;2023-03-04T06:14:38;7.00;;;6.40;;
18100;SDS011;9177;49.156;8.142;2023-03-04T06:17:05;7.27;;;6.67;;
18100;SDS011;9177;49.156;8.142;2023-03-04T06:19:32;6.73;;;6.13;;
18100;SDS011;9177;49.156;8.142;2023-03-04T06:21:59;7.30;;;6.60;;
18100;SDS011;9177;49.156;8.142;2023-03-04T06:24:26;6.73;;;6.13;;
18100;SDS011;9177;49.156;8.142;2023-03-04T06:26:54;6.67;;;6.07;;
18100;SDS011;9177;49.156;8.142;2023-03-04T06:29:21;6.90;;;6.27;;
18100;SDS011;9177;49.156;8.142;2023-03-04T06:31:48;7.57;;;6.83;;
18100;SDS011;9177;49.156;8.142;2023-03-04T06:34:15;6.70;;;6.10;;
18100;SDS011;9177;49.156;8.142;2023-03-04T06:36:42;6.70;;;6.10;;
18100;SDS011;9177;49.156;8.142;2023-03-04T06:39:08;7.27;;;6.57;;
18100;SDS011;9177;49.156;8.142;2023-03-04T06:41:35;7.33;;;6.63;;
18100;SDS011;9177;49.156;8.142;2023-03-04T06:44:04;7.53;;;6.83;;
18100;SDS011;9177;49.156;8.142;2023-03-04T06:46:31;7.20;;;6.50;;
18100;SDS011;9177;49.156;8.142;2023-03-04T06:48:59;6.67;;;6.07;;
18100;SDS011;9177;49.156;8.142;2023-03-04T06:51:26;6.87;;;6.27;;
18100;SDS011;9177;49.156;8.142;2023-03-04T06:53:54;7.17;;;6.27;;
18100;SDS011;9177;49.156;8.142;2023-03-04T06:56:21;6.90;;;6.20;;
18100;SDS011;9177;49.156;8.142;2023-03-04T06:58:48;7.03;;;6.43;;
18100;SDS011;9177;49.156;8.142;2023-03-04T07:01:18;6.80;;;6.03;;
18100;SDS011;9177;49.156;8.142;2023-03-04T07:03:46;6.67;;;6.00;;
18100;SDS011;9177;49.156;8.142;2023-03-04T07:06:15;7.03;;;6.33;;
18100;SDS011;9177;49.156;8.142;2023-03-04T07:08:44;6.97;;;6.27;;
18100;SDS011;9177;49.156;8.142;2023-03-04T07:11:11;7.27;;;6.67;;
18100;SDS011;9177;49.156;8.142;2023-03-04T07:13:38;7.33;;;6.70;;
18100;SDS011;9177;49.156;8.142;2023-03-04T07:16:05;7.30;;;6.60;;
18100;SDS011;9177;49.156;8.142;2023-03-04T07:18:34;7.20;;;6.50;;
18100;SDS011;9177;49.156;8.142;2023-03-04T07:21:02;6.90;;;6.23;;
18100;SDS011;9177;49.156;8.142;2023-03-04T07:23:29;7.33;;;6.70;;
18100;SDS011;9177;49.156;8.142;2023-03-04T07:25:56;7.17;;;6.47;;
18100;SDS011;9177;49.156;8.142;2023-03-04T07:28:23;7.13;;;6.53;;
18100;SDS011;9177;49.156;8.142;2023-03-04T07:30:53;7.53;;;6.83;;
18100;SDS011;9177;49.156;8.142;2023-03-04T07:33:20;7.87;;;7.17;;
18100;SDS011;9177;49.156;8.142;2023-03-04T07:35:48;7.13;;;6.50;;
18100;SDS011;9177;49.156;8.142;2023-03-04T07:38:23;8.13;;;7.37;;
18100;SDS011;9177;49.156;8.142;2023-03-04T07:40:53;6.77;;;6.17;;
18100;SDS011;9177;49.156;8.142;2023-03-04T07:43:20;6.67;;;6.07;;
18100;SDS011;9177;49.156;8.142;2023-03-04T07:45:47;7.33;;;6.63;;
18100;SDS011;9177;49.156;8.142;2023-03-04T07:48:14;7.33;;;6.63;;
18100;SDS011;9177;49.156;8.142;2023-03-04T07:50:41;6.50;;;5.90;;
18100;SDS011;9177;49.156;8.142;2023-03-04T07:53:09;7.50;;;6.80;;
18100;SDS011;9177;49.156;8.142;2023-03-04T07:55:36;7.50;;;6.80;;
18100;SDS011;9177;49.156;8.142;2023-03-04T07:58:02;7.90;;;7.20;;
18100;SDS011;9177;49.156;8.142;2023-03-04T08:00:29;7.10;;;6.40;;
18100;SDS011;9177;49.156;8.142;2023-03-04T08:02:56;7.33;;;6.63;;
18100;SDS011;9177;49.156;8.142;2023-03-04T08:05:23;6.67;;;6.07;;
18100;SDS011;9177;49.156;8.142;2023-03-04T08:07:50;7.43;;;6.73;;
18100;SDS011;9177;49.156;8.142;2023-03-04T08:10:18;7.37;;;6.67;;
18100;SDS011;9177;49.156;8.142;2023-03-04T08:12:45;7.33;;;6.53;;
18100;SDS011;9177;49.156;8.142;2023-03-04T08:15:12;6.97;;;6.37;;
18100;SDS011;9177;49.156;8.142;2023-03-04T08:17:39;6.93;;;6.33;;
18100;SDS011;9177;49.156;8.142;2023-03-04T08:20:06;7.25;;;6.57;;
18100;SDS011;9177;49.156;8.142;2023-03-04T08:22:34;7.73;;;7.03;;
18100;SDS011;9177;49.156;8.142;2023-03-04T08:25:01;7.57;;;6.87;;
18100;SDS011;9177;49.156;8.142;2023-03-04T08:27:31;7.63;;;7.00;;
18100;SDS011;9177;49.156;8.142;2023-03-04T08:29:58;7.90;;;7.10;;
18100;SDS011;9177;49.156;8.142;2023-03-04T08:32:25;8.10;;;7.40;;
18100;SDS011;9177;49.156;8.142;2023-03-04T08:34:52;7.73;;;7.00;;
18100;SDS011;9177;49.156;8.142;2023-03-04T08:37:22;8.60;;;7.80;;
18100;SDS011;9177;49.156;8.142;2023-03-04T08:39:49;7.37;;;6.73;;
18100;SDS011;9177;49.156;8.142;2023-03-04T08:42:16;7.40;;;6.80;;
18100;SDS011;9177;49.156;8.142;2023-03-04T08:44:44;7.53;;;6.83;;
18100;SDS011;9177;49.156;8.142;2023-03-04T08:47:11;8.17;;;7.37;;
18100;SDS011;9177;49.156;8.142;2023-03-04T08:49:38;7.70;;;7.00;;
18100;SDS011;9177;49.156;8.142;2023-03-04T08:52:05;7.83;;;7.13;;
18100;SDS011;9177;49.156;8.142;2023-03-04T08:54:32;7.65;;;6.95;;
18100;SDS011;9177;49.156;8.142;2023-03-04T08:56:59;8.00;;;7.30;;
18100;SDS011;9177;49.156;8.142;2023-03-04T08:59:27;8.23;;;7.43;;
18100;SDS011;9177;49.156;8.142;2023-03-04T09:01:55;8.73;;;7.83;;
18100;SDS011;9177;49.156;8.142;2023-03-04T09:04:22;8.10;;;7.30;;
18100;SDS011;9177;49.156;8.142;2023-03-04T09:06:49;8.57;;;7.30;;
18100;SDS011;9177;49.156;8.142;2023-03-04T09:09:16;7.47;;;6.77;;
18100;SDS011;9177;49.156;8.142;2023-03-04T09:11:43;8.13;;;7.40;;
18100;SDS011;9177;49.156;8.142;2023-03-04T09:14:09;8.90;;;8.00;;
18100;SDS011;9177;49.156;8.142;2023-03-04T09:16:36;7.77;;;7.07;;
18100;SDS011;9177;49.156;8.142;2023-03-04T09:19:05;7.70;;;7.03;;
18100;SDS011;9177;49.156;8.142;2023-03-04T09:21:31;7.97;;;7.27;;
18100;SDS011;9177;49.156;8.142;2023-03-04T09:23:58;8.13;;;7.43;;
18100;SDS011;9177;49.156;8.142;2023-03-04T09:26:26;8.23;;;7.43;;
18100;SDS011;9177;49.156;8.142;2023-03-04T09:28:55;8.33;;;7.63;;
18100;SDS011;9177;49.156;8.142;2023-03-04T09:31:23;8.43;;;7.73;;
18100;SDS011;9177;49.156;8.142;2023-03-04T09:33:51;8.23;;;7.43;;
18100;SDS011;9177;49.156;8.142;2023-03-04T09:36:20;9.63;;;8.40;;
18100;SDS011;9177;49.156;8.142;2023-03-04T09:38:47;8.87;;;8.07;;
18100;SDS011;9177;49.156;8.142;2023-03-04T09:41:15;9.70;;;8.67;;
18100;SDS011;9177;49.156;8.142;2023-03-04T09:43:46;9.03;;;8.23;;
18100;SDS011;9177;49.156;8.142;2023-03-04T09:46:16;9.27;;;8.48;;
18100;SDS011;9177;49.156;8.142;2023-03-04T09:48:52;9.67;;;8.77;;
18100;SDS011;9177;49.156;8.142;2023-03-04T09:51:27;9.83;;;8.93;;
18100;SDS011;9177;49.156;8.142;2023-03-04T09:54:14;9.70;;;8.63;;
18100;SDS011;9177;49.156;8.142;2023-03-04T09:56:48;9.43;;;8.43;;
18100;SDS011;9177;49.156;8.142;2023-03-04T09:59:21;9.43;;;8.53;;
18100;SDS011;9177;49.156;8.142;2023-03-04T10:01:51;9.87;;;8.83;;
18100;SDS011;9177;49.156;8.142;2023-03-04T10:04:23;9.70;;;8.80;;
18100;SDS011;9177;49.156;8.142;2023-03-04T10:06:57;9.07;;;8.17;;
18100;SDS011;9177;49.156;8.142;2023-03-04T10:09:26;8.93;;;8.07;;
18100;SDS011;9177;49.156;8.142;2023-03-04T10:11:58;10.63;;;8.97;;
18100;SDS011;9177;49.156;8.142;2023-03-04T10:14:34;9.97;;;9.07;;
18100;SDS011;9177;49.156;8.142;2023-03-04T10:17:05;8.77;;;7.97;;
18100;SDS011;9177;49.156;8.142;2023-03-04T10:19:41;9.97;;;9.03;;
18100;SDS011;9177;49.156;8.142;2023-03-04T10:22:21;9.70;;;8.70;;
18100;SDS011;9177;49.156;8.142;2023-03-04T10:24:52;8.33;;;7.63;;
18100;SDS011;9177;49.156;8.142;2023-03-04T10:27:23;8.80;;;8.00;;
18100;SDS011;9177;49.156;8.142;2023-03-04T10:29:51;9.27;;;8.37;;
18100;SDS011;9177;49.156;8.142;2023-03-04T10:32:18;9.67;;;8.57;;
18100;SDS011;9177;49.156;8.142;2023-03-04T10:34:46;9.37;;;8.47;;
18100;SDS011;9177;49.156;8.142;2023-03-04T10:37:13;8.60;;;7.80;;
18100;SDS011;9177;49.156;8.142;2023-03-04T10:39:43;9.07;;;8.17;;
18100;SDS011;9177;49.156;8.142;2023-03-04T10:42:25;9.73;;;8.77;;
18100;SDS011;9177;49.156;8.142;2023-03-04T10:45:01;8.57;;;7.77;;
18100;SDS011;9177;49.156;8.142;2023-03-04T10:47:29;8.70;;;7.90;;
18100;SDS011;9177;49.156;8.142;2023-03-04T10:49:58;9.50;;;8.53;;
18100;SDS011;9177;49.156;8.142;2023-03-04T10:52:28;9.13;;;7.57;;
18100;SDS011;9177;49.156;8.142;2023-03-04T10:54:58;9.27;;;8.27;;
18100;SDS011;9177;49.156;8.142;2023-03-04T10:57:31;10.70;;;7.80;;
18100;SDS011;9177;49.156;8.142;2023-03-04T11:00:01;9.13;;;8.23;;
18100;SDS011;9177;49.156;8.142;2023-03-04T11:02:34;8.53;;;7.30;;
18100;SDS011;9177;49.156;8.142;2023-03-04T11:05:05;8.25;;;7.50;;
18100;SDS011;9177;49.156;8.142;2023-03-04T11:07:42;9.40;;;8.40;;
18100;SDS011;9177;49.156;8.142;2023-03-04T11:10:16;9.70;;;8.10;;
18100;SDS011;9177;49.156;8.142;2023-03-04T11:12:48;8.53;;;7.73;;
18100;SDS011;9177;49.156;8.142;2023-03-04T11:15:16;8.80;;;7.77;;
18100;SDS011;9177;49.156;8.142;2023-03-04T11:17:52;8.27;;;7.47;;
18100;SDS011;9177;49.156;8.142;2023-03-04T11:20:25;8.40;;;7.50;;
18100;SDS011;9177;49.156;8.142;2023-03-04T11:22:56;9.37;;;8.37;;
18100;SDS011;9177;49.156;8.142;2023-03-04T11:25:30;10.13;;;7.77;;
18100;SDS011;9177;49.156;8.142;2023-03-04T11:28:01;9.30;;;7.63;;
18100;SDS011;9177;49.156;8.142;2023-03-04T11:30:32;10.40;;;7.80;;
18100;SDS011;9177;49.156;8.142;2023-03-04T11:33:05;10.13;;;7.80;;
18100;SDS011;9177;49.156;8.142;2023-03-04T11:35:41;8.63;;;7.73;;
18100;SDS011;9177;49.156;8.142;2023-03-04T11:38:15;10.47;;;7.13;;
18100;SDS011;9177;49.156;8.142;2023-03-04T11:40:48;10.00;;;7.95;;
18100;SDS011;9177;49.156;8.142;2023-03-04T11:43:19;7.65;;;6.85;;
18100;SDS011;9177;49.156;8.142;2023-03-04T11:46:07;9.23;;;7.17;;
18100;SDS011;9177;49.156;8.142;2023-03-04T11:48:46;9.27;;;7.77;;
18100;SDS011;9177;49.156;8.142;2023-03-04T11:51:20;8.57;;;7.17;;
18100;SDS011;9177;49.156;8.142;2023-03-04T11:53:55;10.13;;;7.57;;
18100;SDS011;9177;49.156;8.142;2023-03-04T11:56:35;9.83;;;7.70;;
18100;SDS011;9177;49.156;8.142;2023-03-04T11:59:21;8.70;;;7.57;;
18100;SDS011;9177;49.156;8.142;2023-03-04T12:02:02;9.23;;;7.67;;
18100;SDS011;9177;49.156;8.142;2023-03-04T12:07:49;7.20;;;6.53;;
18100;SDS011;9177;49.156;8.142;2023-03-04T12:10:35;8.00;;;7.20;;
18100;SDS011;9177;49.156;8.142;2023-03-04T12:16:22;8.50;;;7.00;;
18100;SDS011;9177;49.156;8.142;2023-03-04T12:19:15;9.95;;;7.38;;
18100;SDS011;9177;49.156;8.142;2023-03-04T12:25:02;8.17;;;7.33;;
18100;SDS011;9177;49.156;8.142;2023-03-04T12:27:48;8.43;;;7.18;;
18100;SDS011;9177;49.156;8.142;2023-03-04T12:30:29;10.07;;;7.30;;
18100;SDS011;9177;49.156;8.142;2023-03-04T12:33:09;9.05;;;7.00;;
18100;SDS011;9177;49.156;8.142;2023-03-04T12:35:41;10.47;;;7.10;;
18100;SDS011;9177;49.156;8.142;2023-03-04T12:41:19;7.40;;;6.57;;
18100;SDS011;9177;49.156;8.142;2023-03-04T12:43:54;8.57;;;6.57;;
18100;SDS011;9177;49.156;8.142;2023-03-04T12:46:26;9.03;;;7.07;;
18100;SDS011;9177;49.156;8.142;2023-03-04T12:49:16;10.45;;;6.90;;
18100;SDS011;9177;49.156;8.142;2023-03-04T12:51:53;10.10;;;7.03;;
18100;SDS011;9177;49.156;8.142;2023-03-04T12:54:28;8.10;;;7.20;;
18100;SDS011;9177;49.156;8.142;2023-03-04T12:56:58;8.20;;;6.82;;
18100;SDS011;9177;49.156;8.142;2023-03-04T12:59:39;8.00;;;7.03;;
18100;SDS011;9177;49.156;8.142;2023-03-04T13:05:16;12.93;;;7.20;;
18100;SDS011;9177;49.156;8.142;2023-03-04T13:07:51;12.13;;;7.80;;
18100;SDS011;9177;49.156;8.142;2023-03-04T13:10:24;13.23;;;8.20;;
18100;SDS011;9177;49.156;8.142;2023-03-04T13:12:51;10.50;;;8.57;;
18100;SDS011;9177;49.156;8.142;2023-03-04T13:15:27;12.88;;;7.75;;
18100;SDS011;9177;49.156;8.142;2023-03-04T13:17:56;9.50;;;7.20;;
18100;SDS011;9177;49.156;8.142;2023-03-04T13:20:32;8.80;;;7.53;;
18100;SDS011;9177;49.156;8.142;2023-03-04T13:23:02;11.30;;;7.37;;
18100;SDS011;9177;49.156;8.142;2023-03-04T13:25:45;14.00;;;8.10;;
18100;SDS011;9177;49.156;8.142;2023-03-04T13:28:15;10.23;;;7.45;;
18100;SDS011;9177;49.156;8.142;2023-03-04T13:36:57;9.90;;;6.88;;
18100;SDS011;9177;49.156;8.142;2023-03-04T13:39:25;11.33;;;7.30;;
18100;SDS011;9177;49.156;8.142;2023-03-04T13:41:54;9.20;;;7.30;;
18100;SDS011;9177;49.156;8.142;2023-03-04T13:44:31;9.98;;;7.38;;
18100;SDS011;9177;49.156;8.142;2023-03-04T13:47:45;8.90;;;7.00;;
18100;SDS011;9177;49.156;8.142;2023-03-04T13:50:23;7.90;;;6.40;;
18100;SDS011;9177;49.156;8.142;2023-03-04T13:53:00;9.30;;;6.70;;
18100;SDS011;9177;49.156;8.142;2023-03-04T13:59:00;9.17;;;6.40;;
18100;SDS011;9177;49.156;8.142;2023-03-04T14:01:59;8.45;;;6.32;;
18100;SDS011;9177;49.156;8.142;2023-03-04T14:04:28;7.82;;;6.18;;
18100;SDS011;9177;49.156;8.142;2023-03-04T14:06:58;10.13;;;6.70;;
18100;SDS011;9177;49.156;8.142;2023-03-04T14:09:28;11.33;;;6.50;;
18100;SDS011;9177;49.156;8.142;2023-03-04T14:11:57;7.73;;;6.33;;
18100;SDS011;9177;49.156;8.142;2023-03-04T14:14:27;8.33;;;5.60;;
18100;SDS011;9177;49.156;8.142;2023-03-04T14:17:00;8.73;;;6.27;;
18100;SDS011;9177;49.156;8.142;2023-03-04T14:19:30;9.25;;;6.30;;
18100;SDS011;9177;49.156;8.142;2023-03-04T14:22:02;9.85;;;5.90;;
18100;SDS011;9177;49.156;8.142;2023-03-04T14:24:55;7.90;;;6.67;;
18100;SDS011;9177;49.156;8.142;2023-03-04T14:27:26;8.23;;;6.20;;
18100;SDS011;9177;49.156;8.142;2023-03-04T14:29:54;7.77;;;6.30;;
18100;SDS011;9177;49.156;8.142;2023-03-04T14:32:22;9.13;;;5.80;;
18100;SDS011;9177;49.156;8.142;2023-03-04T14:34:49;7.97;;;5.85;;
18100;SDS011;9177;49.156;8.142;2023-03-04T14:37:20;6.90;;;5.50;;
18100;SDS011;9177;49.156;8.142;2023-03-04T14:39:49;9.27;;;5.82;;
18100;SDS011;9177;49.156;8.142;2023-03-04T14:42:21;10.50;;;6.47;;
18100;SDS011;9177;49.156;8.142;2023-03-04T14:44:54;8.55;;;6.07;;
18100;SDS011;9177;49.156;8.142;2023-03-04T14:47:31;10.93;;;6.03;;
18100;SDS011;9177;49.156;8.142;2023-03-04T14:50:03;10.60;;;7.20;;
18100;SDS011;9177;49.156;8.142;2023-03-04T14:52:32;10.55;;;6.32;;
18100;SDS011;9177;49.156;8.142;2023-03-04T14:55:07;9.05;;;6.32;;
18100;SDS011;9177;49.156;8.142;2023-03-04T14:57:44;8.80;;;5.90;;
18100;SDS011;9177;49.156;8.142;2023-03-04T15:00:13;9.37;;;6.83;;
18100;SDS011;9177;49.156;8.142;2023-03-04T15:02:43;11.43;;;6.83;;
18100;SDS011;9177;49.156;8.142;2023-03-04T15:05:15;8.82;;;6.57;;
18100;SDS011;9177;49.156;8.142;2023-03-04T15:07:48;8.77;;;6.15;;
18100;SDS011;9177;49.156;8.142;2023-03-04T15:10:19;9.82;;;6.63;;
18100;SDS011;9177;49.156;8.142;2023-03-04T15:12:51;10.60;;;7.00;;
18100;SDS011;9177;49.156;8.142;2023-03-04T15:15:31;10.43;;;6.45;;
18100;SDS011;9177;49.156;8.142;2023-03-04T15:18:12;6.83;;;5.63;;
18100;SDS011;9177;49.156;8.142;2023-03-04T15:20:41;10.53;;;6.13;;
18100;SDS011;9177;49.156;8.142;2023-03-04T15:23:18;9.50;;;7.03;;
18100;SDS011;9177;49.156;8.142;2023-03-04T15:25:45;10.07;;;6.77;;
18100;SDS011;9177;49.156;8.142;2023-03-04T15:28:19;11.10;;;6.70;;
18100;SDS011;9177;49.156;8.142;2023-03-04T15:30:47;10.93;;;6.43;;
18100;SDS011;9177;49.156;8.142;2023-03-04T15:33:13;11.03;;;7.10;;
18100;SDS011;9177;49.156;8.142;2023-03-04T15:35:41;6.82;;;6.10;;
18100;SDS011;9177;49.156;8.142;2023-03-04T15:38:14;8.93;;;6.93;;
18100;SDS011;9177;49.156;8.142;2023-03-04T15:40:42;9.93;;;6.63;;
18100;SDS011;9177;49.156;8.142;2023-03-04T15:43:09;11.43;;;7.07;;